Time;durP1;ratioP1;P1;durP2;ratioP2;P2;SDS_P1;SDS_P2;PMS_P1;PMS_P2;Temp;Humidity;BMP_temperature;BMP_pressure;BME280_temperature;BME280_humidity;BME280_pressure;Samples;Min_cycle;Max_cycle;Signal;HPM_P1;HPM_P2
2023/06/22 00:00:13;;;;;;;7.43;6.72;;;;;;;;;;5051061;28;20613;-79
2023/06/22 00:02:40;;;;;;;7.28;6.68;;;;;;;;;;5051351;28;20202;-79
2023/06/22 00:05:09;;;;;;;7.78;6.97;;;;;;;;;;5051240;28;20242;-79
2023/06/22 00:07:36;;;;;;;9.98;7.68;;;;;;;;;;5051825;28;20260;-79
2023/06/22 00:10:03;;;;;;;8.82;6.78;;;;;;;;;;5051069;28;20233;-79
2023/06/22 00:12:30;;;;;;;7.68;6.80;;;;;;;;;;5050309;28;20233;-80
2023/06/22 00:14:57;;;;;;;8.38;6.90;;;;;;;;;;5037525;28;20238;-80
2023/06/22 00:17:24;;;;;;;7.10;6.28;;;;;;;;;;5051320;28;20216;-81
2023/06/22 00:19:53;;;;;;;8.63;7.30;;;;;;;;;;5051018;28;20234;-81
2023/06/22 00:22:27;;;;;;;11.50;7.00;;;;;;;;;;5051405;28;20202;-80
2023/06/22 00:24:54;;;;;;;7.60;6.80;;;;;;;;;;5032402;28;20308;-80
2023/06/22 00:27:21;;;;;;;11.55;7.60;;;;;;;;;;5031618;28;20214;-80
2023/06/22 00:29:49;;;;;;;8.38;6.95;;;;;;;;;;5031066;28;20922;-80
2023/06/22 00:32:17;;;;;;;7.40;6.70;;;;;;;;;;5044110;28;20262;-80
2023/06/22 00:34:44;;;;;;;8.32;7.07;;;;;;;;;;5031352;28;20234;-80
2023/06/22 00:37:12;;;;;;;9.35;7.57;;;;;;;;;;5031682;28;20214;-80
2023/06/22 00:39:40;;;;;;;12.38;7.15;;;;;;;;;;5031045;28;20258;-80
2023/06/22 00:42:07;;;;;;;8.13;7.20;;;;;;;;;;5033142;28;20198;-80
2023/06/22 00:44:34;;;;;;;8.30;7.32;;;;;;;;;;5031051;28;20242;-80
2023/06/22 00:47:02;;;;;;;7.88;7.10;;;;;;;;;;5031482;28;20211;-80
2023/06/22 00:49:29;;;;;;;9.63;7.53;;;;;;;;;;5031018;28;20265;-81
2023/06/22 00:51:56;;;;;;;8.05;7.25;;;;;;;;;;5031189;28;20712;-80
2023/06/22 00:54:24;;;;;;;7.22;6.40;;;;;;;;;;5030785;28;20242;-80
2023/06/22 00:56:54;;;;;;;9.15;7.90;;;;;;;;;;5031416;28;20210;-80
2023/06/22 00:59:22;;;;;;;10.35;7.45;;;;;;;;;;5025813;28;20234;-80
2023/06/22 01:01:49;;;;;;;7.80;7.00;;;;;;;;;;5031513;28;20337;-80
2023/06/22 01:04:16;;;;;;;7.70;6.82;;;;;;;;;;5030485;28;20241;-80
2023/06/22 01:06:47;;;;;;;8.18;6.80;;;;;;;;;;5028418;28;20207;-80
2023/06/22 01:09:16;;;;;;;8.38;7.38;;;;;;;;;;5030676;28;20237;-80
2023/06/22 01:11:46;;;;;;;9.90;7.38;;;;;;;;;;5031385;28;20231;-80
2023/06/22 01:14:17;;;;;;;9.25;7.53;;;;;;;;;;5033937;28;20234;-80
2023/06/22 01:16:45;;;;;;;8.45;7.57;;;;;;;;;;5034587;28;20191;-80
2023/06/22 01:19:20;;;;;;;10.32;8.02;;;;;;;;;;5033932;28;20289;-80
2023/06/22 01:21:48;;;;;;;10.30;7.70;;;;;;;;;;5034924;28;20191;-80
2023/06/22 01:24:19;;;;;;;11.00;8.20;;;;;;;;;;5033987;28;20241;-81
2023/06/22 01:26:52;;;;;;;10.38;7.72;;;;;;;;;;5034559;28;20234;-81
2023/06/22 01:29:21;;;;;;;8.80;7.85;;;;;;;;;;5054010;28;20237;-83
2023/06/22 01:31:49;;;;;;;9.05;8.10;;;;;;;;;;5054700;28;20225;-84
2023/06/22 01:34:17;;;;;;;9.43;7.68;;;;;;;;;;5053922;28;20229;-84
2023/06/22 01:36:44;;;;;;;9.07;7.45;;;;;;;;;;5054145;28;20691;-83
2023/06/22 01:39:12;;;;;;;9.65;7.22;;;;;;;;;;5046870;28;20230;-85
2023/06/22 01:41:41;;;;;;;11.18;6.95;;;;;;;;;;5034385;28;20590;-85
2023/06/22 01:44:10;;;;;;;8.63;7.72;;;;;;;;;;5033925;28;20434;-85
2023/06/22 01:46:38;;;;;;;8.77;7.65;;;;;;;;;;5038974;28;20224;-84
2023/06/22 01:49:06;;;;;;;10.85;7.75;;;;;;;;;;5054057;28;20230;-85
2023/06/22 01:51:33;;;;;;;8.43;7.63;;;;;;;;;;5054606;28;20228;-87
2023/06/22 01:54:00;;;;;;;10.63;8.57;;;;;;;;;;5049447;28;20229;-86
2023/06/22 01:56:27;;;;;;;9.38;8.38;;;;;;;;;;5053891;28;20214;-86
2023/06/22 01:58:58;;;;;;;11.13;7.95;;;;;;;;;;5048478;28;20230;-86
2023/06/22 02:01:26;;;;;;;9.45;8.43;;;;;;;;;;5054150;28;20206;-86
2023/06/22 02:03:59;;;;;;;9.55;7.65;;;;;;;;;;5053238;28;20718;-86
2023/06/22 02:06:28;;;;;;;9.50;8.50;;;;;;;;;;5054029;28;20191;-86
2023/06/22 02:08:58;;;;;;;10.18;8.73;;;;;;;;;;5038595;28;20231;-86
2023/06/22 02:11:27;;;;;;;10.70;8.95;;;;;;;;;;5043694;28;20614;-86
2023/06/22 02:13:54;;;;;;;10.60;8.45;;;;;;;;;;5046336;28;20743;-87
2023/06/22 02:16:21;;;;;;;10.07;9.02;;;;;;;;;;5043250;28;20229;-86
2023/06/22 02:18:50;;;;;;;10.27;8.80;;;;;;;;;;5053551;28;20229;-86
2023/06/22 02:21:19;;;;;;;9.40;8.40;;;;;;;;;;5053934;28;20266;-87
2023/06/22 02:23:46;;;;;;;9.77;8.75;;;;;;;;;;5052335;28;20234;-86
2023/06/22 02:26:13;;;;;;;9.63;8.63;;;;;;;;;;5053581;28;20210;-86
2023/06/22 02:28:40;;;;;;;11.00;9.25;;;;;;;;;;5053213;28;20230;-85
2023/06/22 02:31:07;;;;;;;10.60;8.77;;;;;;;;;;5053626;28;20210;-85
2023/06/22 02:33:34;;;;;;;9.35;8.15;;;;;;;;;;5052932;28;20232;-85
2023/06/22 02:36:04;;;;;;;10.95;9.00;;;;;;;;;;5053363;28;20266;-85
2023/06/22 02:38:34;;;;;;;9.70;8.60;;;;;;;;;;5033341;28;20210;-85
2023/06/22 02:41:01;;;;;;;10.25;8.82;;;;;;;;;;5033724;28;20295;-86
2023/06/22 02:43:28;;;;;;;10.07;9.07;;;;;;;;;;5032895;28;20227;-86
2023/06/22 02:45:55;;;;;;;9.93;8.60;;;;;;;;;;5033321;28;20217;-85
2023/06/22 02:48:22;;;;;;;11.05;8.32;;;;;;;;;;5032904;28;20218;-86
2023/06/22 02:50:49;;;;;;;9.90;8.90;;;;;;;;;;5033520;28;20210;-86
2023/06/22 02:53:16;;;;;;;9.98;8.90;;;;;;;;;;5032730;28;20231;-87
2023/06/22 02:55:45;;;;;;;8.82;7.93;;;;;;;;;;5033404;28;20191;-85
2023/06/22 02:58:12;;;;;;;9.95;8.90;;;;;;;;;;5033542;28;20211;-85
2023/06/22 03:00:39;;;;;;;10.32;9.23;;;;;;;;;;5028719;28;20253;-85
2023/06/22 03:03:06;;;;;;;10.02;8.95;;;;;;;;;;5053321;28;20641;-85
2023/06/22 03:05:35;;;;;;;9.90;8.90;;;;;;;;;;5052581;28;20741;-85
2023/06/22 03:08:02;;;;;;;9.98;8.98;;;;;;;;;;5052769;28;20656;-85
2023/06/22 03:10:29;;;;;;;17.60;10.55;;;;;;;;;;5052415;28;20602;-85
2023/06/22 03:12:57;;;;;;;11.10;8.20;;;;;;;;;;5053211;28;20722;-85
2023/06/22 03:15:25;;;;;;;10.38;8.95;;;;;;;;;;5052438;28;20592;-85
2023/06/22 03:17:52;;;;;;;10.90;8.98;;;;;;;;;;5053174;28;20297;-86
2023/06/22 03:20:20;;;;;;;9.70;8.70;;;;;;;;;;5051919;28;20731;-85
2023/06/22 03:22:48;;;;;;;10.80;8.90;;;;;;;;;;5052655;28;20293;-85
2023/06/22 03:25:15;;;;;;;9.68;8.30;;;;;;;;;;5051941;28;20244;-86
2023/06/22 03:27:43;;;;;;;10.68;8.73;;;;;;;;;;5054183;28;20213;-87
2023/06/22 03:30:12;;;;;;;9.38;8.48;;;;;;;;;;5052892;28;20234;-89
2023/06/22 03:32:39;;;;;;;9.63;8.30;;;;;;;;;;5037880;28;20233;-89
2023/06/22 03:35:07;;;;;;;9.13;8.23;;;;;;;;;;5032941;28;20235;-88
2023/06/22 03:37:34;;;;;;;9.75;8.75;;;;;;;;;;5033000;28;20198;-88
2023/06/22 03:40:02;;;;;;;10.77;9.30;;;;;;;;;;5032710;28;20242;-89
2023/06/22 03:42:29;;;;;;;9.80;8.63;;;;;;;;;;5033957;28;20234;-89
2023/06/22 03:44:56;;;;;;;12.90;9.93;;;;;;;;;;5033181;28;20264;-89
2023/06/22 03:47:24;;;;;;;10.20;9.23;;;;;;;;;;5033684;28;20214;-87
2023/06/22 03:49:54;;;;;;;12.25;9.63;;;;;;;;;;5033281;28;20242;-86
2023/06/22 03:52:21;;;;;;;11.48;10.27;;;;;;;;;;5033940;28;20315;-87
2023/06/22 03:54:49;;;;;;;10.73;9.38;;;;;;;;;;5033341;28;20242;-87
2023/06/22 03:57:16;;;;;;;13.05;10.43;;;;;;;;;;5033725;28;20218;-86
2023/06/22 03:59:43;;;;;;;14.23;12.85;;;;;;;;;;5028878;28;20703;-87
2023/06/22 04:02:10;;;;;;;17.23;12.25;;;;;;;;;;5033750;28;20198;-87
2023/06/22 04:04:39;;;;;;;14.38;11.57;;;;;;;;;;5033196;28;20238;-88
2023/06/22 04:07:06;;;;;;;12.02;10.68;;;;;;;;;;5037256;28;20198;-88
2023/06/22 04:09:33;;;;;;;12.10;10.60;;;;;;;;;;5052353;28;20316;-88
2023/06/22 04:12:00;;;;;;;11.95;10.15;;;;;;;;;;5053217;28;20213;-87
2023/06/22 04:14:27;;;;;;;12.15;10.45;;;;;;;;;;5047094;28;20234;-88
2023/06/22 04:16:54;;;;;;;11.35;10.15;;;;;;;;;;5032465;28;20221;-88
2023/06/22 04:19:21;;;;;;;12.32;11.02;;;;;;;;;;5033597;28;20242;-88
2023/06/22 04:21:50;;;;;;;13.55;12.18;;;;;;;;;;5052980;28;20206;-88
2023/06/22 04:24:17;;;;;;;15.30;11.70;;;;;;;;;;5052259;28;20244;-88
2023/06/22 04:26:45;;;;;;;13.90;12.18;;;;;;;;;;5049610;28;20217;-88
2023/06/22 04:29:12;;;;;;;13.27;10.63;;;;;;;;;;5032343;28;20234;-88
2023/06/22 04:31:39;;;;;;;12.48;11.23;;;;;;;;;;5032897;28;20207;-88
2023/06/22 04:34:07;;;;;;;12.77;11.43;;;;;;;;;;5032038;28;20719;-88
2023/06/22 04:36:38;;;;;;;12.98;11.63;;;;;;;;;;5032532;28;20206;-88
2023/06/22 04:39:09;;;;;;;14.05;11.85;;;;;;;;;;5031603;28;20258;-87
2023/06/22 04:41:42;;;;;;;12.32;11.20;;;;;;;;;;5032068;28;20272;-88
2023/06/22 04:44:10;;;;;;;12.55;11.20;;;;;;;;;;5031190;28;20269;-86
2023/06/22 04:46:38;;;;;;;15.38;11.07;;;;;;;;;;5042123;28;20229;-85
2023/06/22 04:49:09;;;;;;;14.88;11.75;;;;;;;;;;5054345;28;20316;-86
2023/06/22 04:51:41;;;;;;;15.77;12.05;;;;;;;;;;5054972;28;20262;-86
2023/06/22 04:54:10;;;;;;;13.10;11.70;;;;;;;;;;5045799;28;20226;-85
2023/06/22 04:56:40;;;;;;;12.70;11.40;;;;;;;;;;5035332;28;20203;-88
2023/06/22 04:59:08;;;;;;;15.05;11.35;;;;;;;;;;5034335;28;20237;-86
2023/06/22 05:01:35;;;;;;;14.38;11.52;;;;;;;;;;5031447;28;20233;-86
2023/06/22 05:04:05;;;;;;;13.10;11.80;;;;;;;;;;5034590;28;20576;-86
2023/06/22 05:06:32;;;;;;;13.18;11.77;;;;;;;;;;5035036;28;20210;-86
2023/06/22 05:08:59;;;;;;;14.45;12.02;;;;;;;;;;5035085;28;20234;-87
2023/06/22 05:11:28;;;;;;;14.48;12.40;;;;;;;;;;5035569;28;20202;-86
2023/06/22 05:13:55;;;;;;;12.55;11.25;;;;;;;;;;5035855;28;20610;-88
2023/06/22 05:16:24;;;;;;;13.55;11.32;;;;;;;;;;5041241;28;20210;-86
2023/06/22 05:18:55;;;;;;;13.75;11.43;;;;;;;;;;5038387;28;20238;-87
2023/06/22 05:21:23;;;;;;;14.40;11.35;;;;;;;;;;5038082;28;20215;-86
2023/06/22 05:23:50;;;;;;;13.75;11.40;;;;;;;;;;5036065;28;20243;-85
2023/06/22 05:26:17;;;;;;;15.65;12.52;;;;;;;;;;5035359;28;20677;-86
2023/06/22 05:28:46;;;;;;;13.55;11.98;;;;;;;;;;5035429;28;20650;-86
2023/06/22 05:31:14;;;;;;;13.88;11.95;;;;;;;;;;5035519;28;20210;-85
2023/06/22 05:33:41;;;;;;;13.82;11.90;;;;;;;;;;5034736;28;20238;-86
2023/06/22 05:36:08;;;;;;;13.57;11.80;;;;;;;;;;5035953;28;20612;-87
2023/06/22 05:38:35;;;;;;;12.75;11.10;;;;;;;;;;5035416;28;20246;-87
2023/06/22 05:41:02;;;;;;;14.05;12.57;;;;;;;;;;5035739;28;20210;-88
2023/06/22 05:43:30;;;;;;;15.20;12.23;;;;;;;;;;5034972;28;20223;-86
2023/06/22 05:45:58;;;;;;;12.65;11.35;;;;;;;;;;5035125;28;20198;-86
2023/06/22 05:48:25;;;;;;;15.73;11.18;;;;;;;;;;5034738;28;20416;-86
2023/06/22 05:50:52;;;;;;;11.38;10.27;;;;;;;;;;5034922;28;20572;-87
2023/06/22 05:53:19;;;;;;;12.18;10.82;;;;;;;;;;5033239;28;20245;-85
2023/06/22 05:55:47;;;;;;;11.63;9.88;;;;;;;;;;5034305;28;20245;-84
2023/06/22 05:58:14;;;;;;;10.38;9.38;;;;;;;;;;5034127;28;20207;-86
2023/06/22 06:00:42;;;;;;;10.82;9.55;;;;;;;;;;5030172;28;20255;-85
2023/06/22 06:03:11;;;;;;;12.68;10.15;;;;;;;;;;5034362;28;20254;-85
2023/06/22 06:05:38;;;;;;;9.32;8.40;;;;;;;;;;5033054;28;20238;-84
2023/06/22 06:08:06;;;;;;;11.63;9.63;;;;;;;;;;5034020;28;20210;-86
2023/06/22 06:10:34;;;;;;;9.82;8.52;;;;;;;;;;5033216;28;20613;-85
2023/06/22 06:13:04;;;;;;;9.73;8.82;;;;;;;;;;5033748;28;20593;-85
2023/06/22 06:15:31;;;;;;;9.18;8.27;;;;;;;;;;5032996;28;20320;-84
2023/06/22 06:17:59;;;;;;;10.13;9.00;;;;;;;;;;5032160;28;20225;-84
2023/06/22 06:20:28;;;;;;;10.32;8.30;;;;;;;;;;5028181;28;20716;-85
2023/06/22 06:22:55;;;;;;;9.23;8.32;;;;;;;;;;5033980;28;20214;-85
2023/06/22 06:25:23;;;;;;;9.73;8.73;;;;;;;;;;5031168;28;20258;-85
2023/06/22 06:27:50;;;;;;;12.02;8.80;;;;;;;;;;5027126;28;20252;-86
2023/06/22 06:30:19;;;;;;;10.85;8.13;;;;;;;;;;5031934;28;20238;-85
2023/06/22 06:32:46;;;;;;;9.35;8.43;;;;;;;;;;5032067;28;20245;-84
2023/06/22 06:35:14;;;;;;;8.68;7.82;;;;;;;;;;5032209;28;20607;-85
2023/06/22 06:37:44;;;;;;;11.23;8.23;;;;;;;;;;5032663;28;20215;-84
2023/06/22 06:40:12;;;;;;;9.85;7.93;;;;;;;;;;5032048;28;20265;-84
2023/06/22 06:42:41;;;;;;;10.30;8.07;;;;;;;;;;5024431;28;20280;-85
2023/06/22 06:45:09;;;;;;;8.93;8.02;;;;;;;;;;5031973;28;20246;-83
2023/06/22 06:47:36;;;;;;;9.50;8.60;;;;;;;;;;5032593;28;20211;-87
2023/06/22 06:50:03;;;;;;;8.65;7.80;;;;;;;;;;5032252;28;20241;-85
2023/06/22 06:52:30;;;;;;;11.60;8.35;;;;;;;;;;5032782;28;20215;-87
2023/06/22 06:54:58;;;;;;;8.95;7.65;;;;;;;;;;5031762;28;20262;-85
2023/06/22 06:57:28;;;;;;;8.57;7.35;;;;;;;;;;5032124;28;20218;-85
2023/06/22 06:59:56;;;;;;;8.50;7.72;;;;;;;;;;5031686;28;20266;-84
2023/06/22 07:02:23;;;;;;;12.50;8.45;;;;;;;;;;5026718;28;20262;-84
2023/06/22 07:04:50;;;;;;;8.70;7.50;;;;;;;;;;5031567;28;20240;-84
2023/06/22 07:07:18;;;;;;;9.90;8.13;;;;;;;;;;5031842;28;20217;-84
2023/06/22 07:09:45;;;;;;;8.55;7.65;;;;;;;;;;5031008;28;20597;-84
2023/06/22 07:12:13;;;;;;;9.50;7.80;;;;;;;;;;5031552;28;20209;-84
2023/06/22 07:14:40;;;;;;;8.88;7.75;;;;;;;;;;5032248;28;20585;-85
2023/06/22 07:17:07;;;;;;;9.18;8.27;;;;;;;;;;5031508;28;20272;-85
2023/06/22 07:19:34;;;;;;;8.43;7.55;;;;;;;;;;5030104;28;20234;-84
2023/06/22 07:22:02;;;;;;;8.55;7.10;;;;;;;;;;5026339;28;20623;-84
2023/06/22 07:24:29;;;;;;;8.57;7.07;;;;;;;;;;5031180;28;20243;-84
2023/06/22 07:26:57;;;;;;;8.55;7.63;;;;;;;;;;5032025;28;20234;-84
2023/06/22 07:29:26;;;;;;;11.45;6.97;;;;;;;;;;5031235;28;20235;-85
2023/06/22 07:31:56;;;;;;;8.10;7.30;;;;;;;;;;5031636;28;20214;-84
2023/06/22 07:34:23;;;;;;;9.77;6.82;;;;;;;;;;5031073;28;20254;-85
2023/06/22 07:36:50;;;;;;;8.57;7.03;;;;;;;;;;5031811;28;20207;-84
2023/06/22 07:39:17;;;;;;;7.55;6.85;;;;;;;;;;5031423;28;20237;-84
2023/06/22 07:41:44;;;;;;;8.25;7.45;;;;;;;;;;5031417;28;20211;-85
2023/06/22 07:44:11;;;;;;;8.93;7.05;;;;;;;;;;5027890;28;20245;-84
2023/06/22 07:46:39;;;;;;;7.88;7.10;;;;;;;;;;5031034;28;20222;-85
2023/06/22 07:49:08;;;;;;;7.13;6.43;;;;;;;;;;5029201;28;20222;-84
2023/06/22 07:51:35;;;;;;;8.32;6.78;;;;;;;;;;5030951;28;20206;-84
2023/06/22 07:54:02;;;;;;;14.20;7.68;;;;;;;;;;5029615;28;20235;-85
2023/06/22 07:56:29;;;;;;;8.15;7.05;;;;;;;;;;5030665;28;20224;-84
2023/06/22 07:58:58;;;;;;;9.35;7.13;;;;;;;;;;5030631;28;20268;-83
2023/06/22 08:01:25;;;;;;;8.63;7.25;;;;;;;;;;5030484;28;20684;-84
2023/06/22 08:03:53;;;;;;;7.15;6.55;;;;;;;;;;5029483;28;20234;-85
2023/06/22 08:06:21;;;;;;;8.02;6.93;;;;;;;;;;5030875;28;20302;-84
2023/06/22 08:08:48;;;;;;;7.53;6.65;;;;;;;;;;5029480;28;20230;-84
2023/06/22 08:11:16;;;;;;;10.25;6.63;;;;;;;;;;5030717;28;20302;-84
2023/06/22 08:13:43;;;;;;;8.20;7.40;;;;;;;;;;5029336;28;20234;-84
2023/06/22 08:16:10;;;;;;;7.80;7.00;;;;;;;;;;5029313;28;20234;-84
2023/06/22 08:18:37;;;;;;;7.22;6.43;;;;;;;;;;5030215;28;20309;-84
2023/06/22 08:21:06;;;;;;;7.22;6.55;;;;;;;;;;5031047;28;20213;-84
2023/06/22 08:23:33;;;;;;;10.50;6.88;;;;;;;;;;5032116;28;20388;-82
2023/06/22 08:26:00;;;;;;;6.68;6.00;;;;;;;;;;5035045;28;20233;-83
2023/06/22 08:28:27;;;;;;;6.90;6.25;;;;;;;;;;5033926;28;20718;-82
2023/06/22 08:30:55;;;;;;;8.07;7.38;;;;;;;;;;5034790;28;20213;-83
2023/06/22 08:33:28;;;;;;;7.03;6.43;;;;;;;;;;5033519;28;20726;-82
2023/06/22 08:35:55;;;;;;;8.80;6.97;;;;;;;;;;5034549;28;20293;-84
2023/06/22 08:38:23;;;;;;;7.72;6.93;;;;;;;;;;5033978;28;20612;-82
2023/06/22 08:40:50;;;;;;;6.82;6.13;;;;;;;;;;5034744;28;20672;-83
2023/06/22 08:43:18;;;;;;;7.22;6.38;;;;;;;;;;5033767;28;20231;-82
2023/06/22 08:45:45;;;;;;;8.98;6.13;;;;;;;;;;5034352;28;20202;-83
2023/06/22 08:48:12;;;;;;;6.05;5.55;;;;;;;;;;5034790;28;20211;-83
2023/06/22 08:50:40;;;;;;;7.53;6.40;;;;;;;;;;5033969;28;20226;-83
2023/06/22 08:53:07;;;;;;;6.80;6.10;;;;;;;;;;5033640;28;20317;-83
2023/06/22 08:55:36;;;;;;;6.60;5.90;;;;;;;;;;5032480;28;20234;-83
2023/06/22 08:58:04;;;;;;;7.53;6.82;;;;;;;;;;5033796;28;20210;-83
2023/06/22 09:00:34;;;;;;;6.45;5.85;;;;;;;;;;5033565;28;20262;-84
2023/06/22 09:03:01;;;;;;;6.15;5.55;;;;;;;;;;5033926;28;20210;-83
2023/06/22 09:05:28;;;;;;;6.43;5.82;;;;;;;;;;5033127;28;20231;-83
2023/06/22 09:07:55;;;;;;;6.50;5.47;;;;;;;;;;5034268;28;20210;-83
2023/06/22 09:10:22;;;;;;;7.15;5.93;;;;;;;;;;5033540;28;20230;-83
2023/06/22 09:12:51;;;;;;;5.90;5.30;;;;;;;;;;5033605;28;20203;-85
2023/06/22 09:15:18;;;;;;;5.72;5.22;;;;;;;;;;5027418;28;20721;-87
2023/06/22 09:17:46;;;;;;;6.43;5.57;;;;;;;;;;5016536;28;20225;-83
2023/06/22 09:20:13;;;;;;;7.93;4.97;;;;;;;;;;5028097;28;20222;-83
2023/06/22 09:22:40;;;;;;;8.68;5.10;;;;;;;;;;5030327;28;20217;-83
2023/06/22 09:25:07;;;;;;;6.20;4.97;;;;;;;;;;5026994;28;20276;-87
2023/06/22 09:27:34;;;;;;;6.85;5.47;;;;;;;;;;5028691;28;20210;-81
2023/06/22 09:30:03;;;;;;;6.68;5.40;;;;;;;;;;5031846;28;20234;-82
2023/06/22 09:32:30;;;;;;;5.70;5.07;;;;;;;;;;5032267;28;20593;-81
2023/06/22 09:34:57;;;;;;;7.47;5.20;;;;;;;;;;5030273;28;20237;-81
2023/06/22 09:37:24;;;;;;;6.10;5.38;;;;;;;;;;5032501;28;20219;-82
2023/06/22 09:39:51;;;;;;;6.63;5.30;;;;;;;;;;5031133;28;20769;-81
2023/06/22 09:42:18;;;;;;;7.13;5.20;;;;;;;;;;5032845;28;20260;-81
2023/06/22 09:44:45;;;;;;;5.88;5.35;;;;;;;;;;5031677;28;20231;-82
2023/06/22 09:47:14;;;;;;;5.40;4.90;;;;;;;;;;5032763;28;20694;-82
2023/06/22 09:49:41;;;;;;;7.57;5.28;;;;;;;;;;5027381;28;20644;-81
2023/06/22 09:52:08;;;;;;;7.68;5.53;;;;;;;;;;5032405;28;20207;-82
2023/06/22 09:54:35;;;;;;;5.47;4.97;;;;;;;;;;5031104;28;20708;-82
2023/06/22 09:57:02;;;;;;;6.15;5.55;;;;;;;;;;5023966;28;20657;-82
2023/06/22 09:59:29;;;;;;;5.65;5.07;;;;;;;;;;5030491;28;20237;-81
2023/06/22 10:01:56;;;;;;;5.82;5.30;;;;;;;;;;5026923;28;20206;-82
2023/06/22 10:04:25;;;;;;;6.03;5.53;;;;;;;;;;5031438;28;20234;-81
2023/06/22 10:06:52;;;;;;;7.43;5.60;;;;;;;;;;5031854;28;20298;-81
2023/06/22 10:09:19;;;;;;;7.30;5.63;;;;;;;;;;5031857;28;20242;-81
2023/06/22 10:11:46;;;;;;;5.70;4.93;;;;;;;;;;5030680;28;20918;-81
2023/06/22 10:14:13;;;;;;;7.93;5.82;;;;;;;;;;5025204;28;20239;-82
2023/06/22 10:16:41;;;;;;;6.80;5.60;;;;;;;;;;5024844;28;20227;-82
2023/06/22 10:19:08;;;;;;;6.55;5.38;;;;;;;;;;5031694;28;20226;-82
2023/06/22 10:21:36;;;;;;;9.32;5.13;;;;;;;;;;5031457;28;20234;-81
2023/06/22 10:24:05;;;;;;;5.45;4.95;;;;;;;;;;5027443;28;20239;-81
2023/06/22 10:26:33;;;;;;;5.53;5.03;;;;;;;;;;5028623;28;20230;-81
2023/06/22 10:29:00;;;;;;;8.20;5.88;;;;;;;;;;5031336;28;20234;-81
2023/06/22 10:31:27;;;;;;;7.43;5.28;;;;;;;;;;5031024;28;20676;-82
2023/06/22 10:33:54;;;;;;;7.22;5.28;;;;;;;;;;5031069;28;20234;-81
2023/06/22 10:36:22;;;;;;;7.32;5.30;;;;;;;;;;5031749;28;20206;-81
2023/06/22 10:38:50;;;;;;;5.65;5.05;;;;;;;;;;5031154;28;20275;-82
2023/06/22 10:41:17;;;;;;;8.52;5.70;;;;;;;;;;5030997;28;20241;-81
2023/06/22 10:43:44;;;;;;;6.35;5.13;;;;;;;;;;5030862;28;20245;-81
2023/06/22 10:46:11;;;;;;;10.23;5.80;;;;;;;;;;5030497;28;20669;-81
2023/06/22 10:48:38;;;;;;;6.20;5.60;;;;;;;;;;5030701;28;20234;-82
2023/06/22 10:51:05;;;;;;;6.03;5.47;;;;;;;;;;5031281;28;20237;-81
2023/06/22 10:53:33;;;;;;;6.15;5.47;;;;;;;;;;5030275;28;20257;-81
2023/06/22 10:56:01;;;;;;;8.30;5.60;;;;;;;;;;5030879;28;20246;-82
2023/06/22 10:58:29;;;;;;;8.65;5.20;;;;;;;;;;5030547;28;20202;-81
2023/06/22 11:00:56;;;;;;;6.35;5.75;;;;;;;;;;5028578;28;20215;-82
2023/06/22 11:03:23;;;;;;;7.53;5.93;;;;;;;;;;5030665;28;20226;-81
2023/06/22 11:05:50;;;;;;;9.48;5.90;;;;;;;;;;5030638;28;20218;-81
2023/06/22 11:08:17;;;;;;;6.95;5.13;;;;;;;;;;5030537;28;20206;-81
2023/06/22 11:10:44;;;;;;;7.05;5.82;;;;;;;;;;5030282;28;20203;-81
2023/06/22 11:13:12;;;;;;;8.95;5.75;;;;;;;;;;5030934;28;20229;-81
2023/06/22 11:15:40;;;;;;;5.97;5.40;;;;;;;;;;5029489;28;20590;-81
2023/06/22 11:18:07;;;;;;;5.72;5.25;;;;;;;;;;5030513;28;20199;-82
2023/06/22 11:20:38;;;;;;;6.03;5.10;;;;;;;;;;5029807;28;20340;-80
2023/06/22 11:23:06;;;;;;;6.45;5.60;;;;;;;;;;5026036;28;20225;-81
2023/06/22 11:25:34;;;;;;;6.10;5.53;;;;;;;;;;5029829;28;20390;-82
2023/06/22 11:28:01;;;;;;;9.85;6.00;;;;;;;;;;5030313;28;20641;-81
2023/06/22 11:30:30;;;;;;;8.32;5.82;;;;;;;;;;5029317;28;20287;-81
2023/06/22 11:32:58;;;;;;;6.10;5.50;;;;;;;;;;5022754;28;20214;-81
2023/06/22 11:35:27;;;;;;;5.80;5.30;;;;;;;;;;5030082;28;20233;-81
2023/06/22 11:37:55;;;;;;;9.88;6.20;;;;;;;;;;5030547;28;20202;-81
2023/06/22 11:40:22;;;;;;;8.65;5.75;;;;;;;;;;5030147;28;20261;-84
2023/06/22 11:42:49;;;;;;;5.70;5.15;;;;;;;;;;5029996;28;20202;-80
2023/06/22 11:45:18;;;;;;;7.05;5.68;;;;;;;;;;5030406;28;20237;-82
2023/06/22 11:47:46;;;;;;;8.95;6.25;;;;;;;;;;5030132;28;20317;-81
2023/06/22 11:50:13;;;;;;;5.70;4.95;;;;;;;;;;5029509;28;20226;-81
2023/06/22 11:52:40;;;;;;;6.80;5.72;;;;;;;;;;5029732;28;20688;-80
2023/06/22 11:55:08;;;;;;;6.38;5.65;;;;;;;;;;5028927;28;20237;-82
2023/06/22 11:57:35;;;;;;;6.65;5.43;;;;;;;;;;5016506;28;20694;-81
2023/06/22 12:00:06;;;;;;;5.90;5.32;;;;;;;;;;5025911;28;20260;-81
2023/06/22 12:02:33;;;;;;;6.32;5.38;;;;;;;;;;5025917;28;20209;-82
2023/06/22 12:05:04;;;;;;;6.93;5.10;;;;;;;;;;5028777;28;20692;-82
2023/06/22 12:07:31;;;;;;;12.63;7.32;;;;;;;;;;5028777;28;20216;-81
2023/06/22 12:09:58;;;;;;;7.35;5.15;;;;;;;;;;5021440;28;20766;-81
2023/06/22 12:12:25;;;;;;;7.55;5.70;;;;;;;;;;5029760;28;20310;-82
2023/06/22 12:14:53;;;;;;;7.43;5.30;;;;;;;;;;5028809;28;20234;-81
2023/06/22 12:17:20;;;;;;;7.07;6.10;;;;;;;;;;5026702;28;20213;-81
2023/06/22 12:19:47;;;;;;;7.30;5.50;;;;;;;;;;5029079;28;20328;-82
2023/06/22 12:22:15;;;;;;;7.43;5.20;;;;;;;;;;5030226;28;20206;-81
2023/06/22 12:24:42;;;;;;;7.93;5.10;;;;;;;;;;5029069;28;20237;-82
2023/06/22 12:27:10;;;;;;;6.97;5.43;;;;;;;;;;5029752;28;20211;-81
2023/06/22 12:29:37;;;;;;;5.47;4.97;;;;;;;;;;5029525;28;20280;-80
2023/06/22 12:32:04;;;;;;;9.80;5.43;;;;;;;;;;5029410;28;20213;-81
2023/06/22 12:34:31;;;;;;;8.13;5.00;;;;;;;;;;5029349;28;20240;-82
2023/06/22 12:36:58;;;;;;;5.78;5.18;;;;;;;;;;5029895;28;20256;-81
2023/06/22 12:39:26;;;;;;;6.18;5.57;;;;;;;;;;5029717;28;20233;-82
2023/06/22 12:41:53;;;;;;;6.00;5.35;;;;;;;;;;5029578;28;20580;-82
2023/06/22 12:44:20;;;;;;;7.47;5.55;;;;;;;;;;5029238;28;20230;-82
2023/06/22 12:46:48;;;;;;;6.68;4.90;;;;;;;;;;5029500;28;20902;-81
2023/06/22 12:49:15;;;;;;;6.82;4.80;;;;;;;;;;5029540;28;20308;-81
2023/06/22 12:51:42;;;;;;;6.95;5.60;;;;;;;;;;5029231;28;20217;-81
2023/06/22 12:54:09;;;;;;;7.22;5.63;;;;;;;;;;5029178;28;20238;-81
2023/06/22 12:56:38;;;;;;;7.30;5.22;;;;;;;;;;5027452;28;20283;-81
2023/06/22 12:59:06;;;;;;;5.20;4.80;;;;;;;;;;5029229;28;20654;-81
2023/06/22 13:01:33;;;;;;;6.20;5.32;;;;;;;;;;5022658;28;20206;-81
2023/06/22 13:04:00;;;;;;;7.57;5.22;;;;;;;;;;5029060;28;20291;-82
2023/06/22 13:06:27;;;;;;;7.05;4.82;;;;;;;;;;5029310;28;20213;-82
2023/06/22 13:08:54;;;;;;;6.80;5.25;;;;;;;;;;5030157;28;20741;-81
2023/06/22 13:11:22;;;;;;;7.25;5.43;;;;;;;;;;5033087;28;20206;-81
2023/06/22 13:13:50;;;;;;;6.40;5.43;;;;;;;;;;5032711;28;20234;-81
2023/06/22 13:16:17;;;;;;;7.20;4.82;;;;;;;;;;5033231;28;20226;-80
2023/06/22 13:18:44;;;;;;;8.68;5.22;;;;;;;;;;5032598;28;20252;-81
2023/06/22 13:21:11;;;;;;;6.00;5.05;;;;;;;;;;5032838;28;20206;-80
2023/06/22 13:23:38;;;;;;;9.02;4.93;;;;;;;;;;5031119;28;20238;-81
2023/06/22 13:26:05;;;;;;;8.32;5.03;;;;;;;;;;5032807;28;20217;-81
2023/06/22 13:28:32;;;;;;;6.43;5.10;;;;;;;;;;5032266;28;20256;-81
2023/06/22 13:31:00;;;;;;;5.43;4.93;;;;;;;;;;5021729;28;20203;-80
2023/06/22 13:33:27;;;;;;;8.65;4.88;;;;;;;;;;5031964;28;20234;-82
2023/06/22 13:35:55;;;;;;;8.52;5.05;;;;;;;;;;5024715;28;20240;-80
2023/06/22 13:38:22;;;;;;;7.82;5.43;;;;;;;;;;5032266;28;20213;-80
2023/06/22 13:40:49;;;;;;;5.28;4.50;;;;;;;;;;5032510;28;20300;-81
2023/06/22 13:43:16;;;;;;;8.13;4.93;;;;;;;;;;5032110;28;20222;-80
2023/06/22 13:45:43;;;;;;;6.68;5.00;;;;;;;;;;5032294;28;20245;-80
2023/06/22 13:48:12;;;;;;;8.50;4.95;;;;;;;;;;5032567;28;20252;-80
2023/06/22 13:50:39;;;;;;;6.30;4.57;;;;;;;;;;5031856;28;20226;-80
2023/06/22 13:53:06;;;;;;;7.38;5.20;;;;;;;;;;5032397;28;20237;-80
2023/06/22 13:55:33;;;;;;;11.40;4.45;;;;;;;;;;5031626;28;20230;-81
2023/06/22 13:58:00;;;;;;;6.53;4.53;;;;;;;;;;5032156;28;20563;-81
2023/06/22 14:00:27;;;;;;;6.00;4.32;;;;;;;;;;5031837;28;20230;-81
2023/06/22 14:02:54;;;;;;;9.98;4.53;;;;;;;;;;5032231;28;20202;-81
2023/06/22 14:05:25;;;;;;;8.40;4.20;;;;;;;;;;5026367;28;20280;-81
2023/06/22 14:07:53;;;;;;;8.85;4.18;;;;;;;;;;5031116;28;20213;-81
2023/06/22 14:10:20;;;;;;;8.20;4.72;;;;;;;;;;5028322;28;20754;-82
2023/06/22 14:12:47;;;;;;;5.40;4.07;;;;;;;;;;5031553;28;20264;-83
2023/06/22 14:15:14;;;;;;;5.70;3.60;;;;;;;;;;5031636;28;20234;-83
2023/06/22 14:17:41;;;;;;;7.57;4.15;;;;;;;;;;5031719;28;20657;-82
2023/06/22 14:20:09;;;;;;;7.40;3.92;;;;;;;;;;5028062;28;20288;-82
2023/06/22 14:22:39;;;;;;;6.07;3.78;;;;;;;;;;5030859;28;20281;-81
2023/06/22 14:25:06;;;;;;;5.18;3.95;;;;;;;;;;5024508;28;20227;-82
2023/06/22 14:27:33;;;;;;;5.65;3.63;;;;;;;;;;5030887;28;20206;-81
2023/06/22 14:30:00;;;;;;;6.30;3.65;;;;;;;;;;5031110;28;20270;-81
2023/06/22 14:32:29;;;;;;;10.52;3.80;;;;;;;;;;5031425;28;20207;-83
2023/06/22 14:34:56;;;;;;;8.55;3.67;;;;;;;;;;5031226;28;20257;-83
2023/06/22 14:37:23;;;;;;;7.18;4.10;;;;;;;;;;5031592;28;20233;-81
2023/06/22 14:39:52;;;;;;;4.95;3.45;;;;;;;;;;5031066;28;20237;-81